createdAt,value
2023-01-31T00:00:11.538Z,2.12
2023-01-31T00:01:11.562Z,2.18
2023-01-31T00:02:11.570Z,2.09
2023-01-31T00:03:11.521Z,2.07
2023-01-31T00:04:11.524Z,2.05
2023-01-31T00:05:11.491Z,2.02
2023-01-31T00:06:11.480Z,2.01
2023-01-31T00:07:11.510Z,2.04
2023-01-31T00:08:11.452Z,1.93
2023-01-31T00:09:11.441Z,1.75
2023-01-31T00:10:11.444Z,1.67
2023-01-31T00:11:11.437Z,1.70
2023-01-31T00:12:11.426Z,1.63
2023-01-31T00:13:11.457Z,1.52
2023-01-31T00:14:11.477Z,1.46
2023-01-31T00:15:11.390Z,1.28
2023-01-31T00:16:11.390Z,1.16
2023-01-31T00:17:11.362Z,1.10
2023-01-31T00:18:11.356Z,1.08
2023-01-31T00:19:11.366Z,0.95
2023-01-31T00:20:11.331Z,0.67
2023-01-31T00:21:11.322Z,0.68
2023-01-31T00:22:11.309Z,0.45
2023-01-31T00:23:11.315Z,0.33
2023-01-31T00:24:11.305Z,0.28
2023-01-31T00:25:11.310Z,0.20
2023-01-31T00:26:11.371Z,0.12
2023-01-31T00:27:11.247Z,-0.02
2023-01-31T00:28:11.243Z,-0.19
2023-01-31T00:29:11.271Z,-0.23
2023-01-31T00:30:11.240Z,-0.17
2023-01-31T00:31:11.296Z,0.02
2023-01-31T00:32:11.248Z,-0.02
2023-01-31T00:33:11.195Z,-0.05
2023-01-31T00:34:11.210Z,-0.20
2023-01-31T00:35:11.167Z,-0.13
2023-01-31T00:36:11.175Z,-0.09
2023-01-31T00:37:11.215Z,-0.19
2023-01-31T00:38:11.156Z,-0.19
2023-01-31T00:39:11.157Z,-0.05
2023-01-31T00:40:11.124Z,-0.16
2023-01-31T00:41:11.110Z,-0.37
2023-01-31T00:42:11.100Z,-0.47
2023-01-31T00:43:11.094Z,-0.53
2023-01-31T00:44:11.114Z,-0.52
2023-01-31T00:45:11.063Z,-0.60
2023-01-31T00:46:11.080Z,-0.56
2023-01-31T00:47:11.058Z,-0.62
2023-01-31T00:48:11.038Z,-0.73
2023-01-31T00:49:11.034Z,-0.63
2023-01-31T00:50:11.044Z,-0.76
2023-01-31T00:51:11.016Z,-0.81
2023-01-31T00:52:11.024Z,-0.93
2023-01-31T00:53:10.992Z,-0.85
2023-01-31T00:54:11.024Z,-0.97
2023-01-31T00:55:10.961Z,-1.05
2023-01-31T00:56:10.958Z,-1.02
2023-01-31T00:57:10.960Z,-1.07
2023-01-31T00:58:10.939Z,-0.99
2023-01-31T00:59:10.936Z,-0.96
2023-01-31T01:00:10.912Z,-0.92
2023-01-31T01:01:10.962Z,-0.78
2023-01-31T01:02:11.006Z,-0.68
2023-01-31T01:03:10.880Z,-0.37
2023-01-31T01:04:10.908Z,-0.08
2023-01-31T01:05:10.890Z,-0.23
2023-01-31T01:06:10.860Z,-0.39
2023-01-31T01:07:10.844Z,-0.56
2023-01-31T01:08:10.830Z,-0.67
2023-01-31T01:09:10.843Z,-0.68
2023-01-31T01:10:10.813Z,-0.76
2023-01-31T01:11:10.807Z,-0.77
2023-01-31T01:12:10.797Z,-0.89
2023-01-31T01:13:10.768Z,-1.03
2023-01-31T01:14:10.788Z,-1.07
2023-01-31T01:15:10.754Z,-1.11
2023-01-31T01:16:10.805Z,-1.13
2023-01-31T01:17:10.740Z,-1.02
2023-01-31T01:18:10.755Z,-0.96
2023-01-31T01:19:10.727Z,-0.99
2023-01-31T01:20:10.702Z,-0.99
2023-01-31T01:21:10.685Z,-1.05
2023-01-31T01:22:10.684Z,-1.10
2023-01-31T01:23:10.669Z,-1.18
2023-01-31T01:24:10.715Z,-1.25
2023-01-31T01:25:10.674Z,-1.20
2023-01-31T01:26:10.634Z,-1.10
2023-01-31T01:27:10.630Z,-1.02
2023-01-31T01:28:10.627Z,-0.92
2023-01-31T01:29:10.624Z,-0.86
2023-01-31T01:30:10.594Z,-0.86
2023-01-31T01:31:10.716Z,-0.74
2023-01-31T01:32:10.597Z,-0.78
2023-01-31T01:33:10.564Z,-0.59
2023-01-31T01:34:10.590Z,-0.56
2023-01-31T01:35:10.541Z,-0.55
2023-01-31T01:36:10.534Z,-0.49
2023-01-31T01:37:10.531Z,-0.52
2023-01-31T01:38:10.536Z,-0.58
2023-01-31T01:39:10.535Z,-0.63
2023-01-31T01:40:10.491Z,-0.73
2023-01-31T01:41:10.530Z,-1.05
2023-01-31T01:42:10.470Z,-1.13
2023-01-31T01:43:10.461Z,-1.18
2023-01-31T01:44:10.483Z,-1.05
2023-01-31T01:45:10.447Z,-0.93
2023-01-31T01:46:10.492Z,-0.81
2023-01-31T01:47:10.418Z,-0.55
2023-01-31T01:48:10.409Z,-0.47
2023-01-31T01:49:10.417Z,-0.67
2023-01-31T01:50:10.411Z,-0.63
2023-01-31T01:51:10.388Z,-0.74
2023-01-31T01:52:10.418Z,-0.68
2023-01-31T01:53:10.374Z,-0.71
2023-01-31T01:54:10.381Z,-0.71
2023-01-31T01:55:10.349Z,-0.53
2023-01-31T01:56:10.332Z,-0.58
2023-01-31T01:57:10.344Z,-0.45
2023-01-31T01:58:10.328Z,-0.56
2023-01-31T01:59:10.320Z,-0.73
2023-01-31T02:00:10.301Z,-0.73
2023-01-31T02:01:10.317Z,-0.78
2023-01-31T02:02:10.287Z,-0.86
2023-01-31T02:03:10.296Z,-0.99
2023-01-31T02:04:10.270Z,-0.73
2023-01-31T02:05:10.241Z,-0.71
2023-01-31T02:06:10.257Z,-0.65
2023-01-31T02:07:10.427Z,-0.55
2023-01-31T02:08:10.222Z,-0.50
2023-01-31T02:09:10.204Z,-0.68
2023-01-31T02:10:10.185Z,-0.65
2023-01-31T02:11:10.170Z,-0.55
2023-01-31T02:12:10.497Z,-0.47
2023-01-31T02:13:10.167Z,-0.16
2023-01-31T02:14:10.154Z,-0.13
2023-01-31T02:15:10.130Z,-0.16
2023-01-31T02:16:10.180Z,-0.26
2023-01-31T02:17:10.109Z,-0.38
2023-01-31T02:18:10.116Z,-0.31
2023-01-31T02:19:10.118Z,-0.39
2023-01-31T02:20:10.106Z,-0.42
2023-01-31T02:21:10.080Z,-0.50
2023-01-31T02:22:10.079Z,-0.55
2023-01-31T02:23:10.204Z,-0.52
2023-01-31T02:24:10.092Z,-0.31
2023-01-31T02:25:10.889Z,-0.14
2023-01-31T02:26:10.017Z,0.04
2023-01-31T02:27:10.006Z,0.15
2023-01-31T02:28:10.034Z,0.26
2023-01-31T02:29:10.000Z,0.48
2023-01-31T02:30:09.991Z,0.43
2023-01-31T02:31:10.058Z,0.53
2023-01-31T02:32:11.621Z,0.51
2023-01-31T02:33:09.977Z,0.49
2023-01-31T02:34:09.932Z,0.52
2023-01-31T02:35:09.945Z,0.60
2023-01-31T02:36:09.927Z,0.62
2023-01-31T02:37:09.928Z,0.70
2023-01-31T02:38:09.934Z,0.70
2023-01-31T02:39:09.903Z,0.74
2023-01-31T02:40:09.881Z,0.60
2023-01-31T02:41:09.864Z,0.59
2023-01-31T02:42:10.136Z,0.59
2023-01-31T02:43:11.086Z,0.51
2023-01-31T02:44:09.889Z,0.59
2023-01-31T02:45:10.066Z,0.51
2023-01-31T02:46:09.878Z,0.60
2023-01-31T02:47:09.797Z,0.70
2023-01-31T02:48:09.803Z,0.53
2023-01-31T02:49:09.805Z,0.67
2023-01-31T02:50:09.773Z,0.60
2023-01-31T02:51:09.775Z,0.68
2023-01-31T02:52:09.746Z,0.77
2023-01-31T02:53:09.746Z,0.81
2023-01-31T02:54:09.781Z,0.81
2023-01-31T02:55:09.719Z,0.81
2023-01-31T02:56:09.723Z,0.80
2023-01-31T02:57:09.697Z,0.84
2023-01-31T02:58:09.689Z,0.89
2023-01-31T02:59:09.696Z,0.84
2023-01-31T03:00:09.667Z,0.75
2023-01-31T03:01:09.698Z,0.82
2023-01-31T03:02:09.668Z,0.72
2023-01-31T03:03:09.681Z,0.75
2023-01-31T03:04:09.660Z,0.80
2023-01-31T03:05:09.628Z,0.62
2023-01-31T03:06:09.616Z,0.71
2023-01-31T03:07:09.639Z,0.67
2023-01-31T03:08:09.587Z,0.53
2023-01-31T03:09:09.610Z,0.57
2023-01-31T03:10:09.582Z,0.52
2023-01-31T03:11:09.560Z,0.59
2023-01-31T03:12:09.542Z,0.49
2023-01-31T03:13:09.534Z,0.59
2023-01-31T03:14:09.545Z,0.45
2023-01-31T03:15:09.519Z,0.44
2023-01-31T03:16:09.510Z,0.45
2023-01-31T03:17:09.502Z,0.43
2023-01-31T03:18:09.477Z,0.44
2023-01-31T03:19:09.505Z,0.30
2023-01-31T03:20:09.459Z,0.40
2023-01-31T03:21:09.448Z,0.26
2023-01-31T03:22:09.463Z,0.35
2023-01-31T03:23:09.435Z,0.33
2023-01-31T03:24:09.512Z,0.38
2023-01-31T03:25:09.420Z,0.28
2023-01-31T03:26:09.414Z,0.35
2023-01-31T03:27:09.389Z,0.45
2023-01-31T03:28:09.388Z,0.45
2023-01-31T03:29:09.404Z,0.49
2023-01-31T03:30:09.353Z,0.62
2023-01-31T03:31:09.477Z,0.62
2023-01-31T03:32:09.335Z,0.67
2023-01-31T03:33:09.320Z,0.63
2023-01-31T03:34:09.332Z,0.64
2023-01-31T03:35:09.337Z,0.64
2023-01-31T03:36:09.301Z,0.57
2023-01-31T03:37:09.283Z,0.59
2023-01-31T03:38:09.271Z,0.51
2023-01-31T03:39:09.264Z,0.44
2023-01-31T03:40:09.280Z,0.52
2023-01-31T03:41:09.243Z,0.31
2023-01-31T03:42:09.270Z,0.31
2023-01-31T03:43:09.224Z,0.20
2023-01-31T03:44:09.207Z,0.15
2023-01-31T03:45:09.212Z,0.12
2023-01-31T03:46:09.223Z,0.05
2023-01-31T03:47:09.180Z,0.10
2023-01-31T03:48:09.188Z,0.07
2023-01-31T03:49:09.197Z,0.13
2023-01-31T03:50:09.149Z,0.01
2023-01-31T03:51:09.148Z,0.02
2023-01-31T03:52:09.131Z,-0.05
2023-01-31T03:53:09.122Z,-0.17
2023-01-31T03:54:09.151Z,-0.39
2023-01-31T03:55:09.119Z,-0.42
2023-01-31T03:56:09.115Z,-0.45
2023-01-31T03:57:09.087Z,-0.47
2023-01-31T03:58:09.120Z,-0.45
2023-01-31T03:59:09.092Z,-0.44
2023-01-31T04:00:09.049Z,-0.42
2023-01-31T04:01:09.039Z,-0.56
2023-01-31T04:02:09.062Z,-0.53
2023-01-31T04:03:09.022Z,-0.56
2023-01-31T04:04:09.025Z,-0.52
2023-01-31T04:05:09.020Z,-0.53
2023-01-31T04:06:08.998Z,-0.62
2023-01-31T04:07:08.984Z,-0.56
2023-01-31T04:08:08.977Z,-0.63
2023-01-31T04:09:08.950Z,-0.70
2023-01-31T04:10:08.946Z,-0.73
2023-01-31T04:11:08.961Z,-0.85
2023-01-31T04:12:08.935Z,-0.96
2023-01-31T04:13:08.909Z,-0.97
2023-01-31T04:14:08.911Z,-0.99
2023-01-31T04:15:08.884Z,-1.13
2023-01-31T04:16:08.952Z,-1.15
2023-01-31T04:17:08.893Z,-1.26
2023-01-31T04:18:08.859Z,-1.36
2023-01-31T04:19:08.863Z,-1.32
2023-01-31T04:20:08.844Z,-1.50
2023-01-31T04:21:08.824Z,-1.54
2023-01-31T04:22:08.814Z,-1.68
2023-01-31T04:23:08.824Z,-1.65
2023-01-31T04:24:08.896Z,-1.67
2023-01-31T04:25:08.799Z,-1.82
2023-01-31T04:26:08.780Z,-1.78
2023-01-31T04:27:08.763Z,-1.80
2023-01-31T04:28:08.750Z,-1.89
2023-01-31T04:29:08.777Z,-1.82
2023-01-31T04:30:08.758Z,-1.89
2023-01-31T04:31:08.860Z,-1.92
2023-01-31T04:32:08.766Z,-1.93
2023-01-31T04:33:08.704Z,-1.93
2023-01-31T04:34:09.296Z,-2.01
2023-01-31T04:35:09.064Z,-2.03
2023-01-31T04:36:09.063Z,-2.14
2023-01-31T04:37:08.874Z,-2.07
2023-01-31T04:38:08.811Z,-1.96
2023-01-31T04:39:08.665Z,-1.95
2023-01-31T04:40:08.757Z,-1.93
2023-01-31T04:41:08.634Z,-1.85
2023-01-31T04:42:08.623Z,-1.78
2023-01-31T04:43:08.602Z,-1.74
2023-01-31T04:44:08.604Z,-1.70
2023-01-31T04:45:09.211Z,-1.75
2023-01-31T04:46:09.078Z,-1.70
2023-01-31T04:47:09.020Z,-1.71
2023-01-31T04:48:08.889Z,-1.53
2023-01-31T04:49:08.894Z,-1.47
2023-01-31T04:50:08.621Z,-1.36
2023-01-31T04:51:08.659Z,-1.31
2023-01-31T04:52:08.505Z,-1.23
2023-01-31T04:53:08.506Z,-1.18
2023-01-31T04:54:08.517Z,-1.21
2023-01-31T04:55:08.484Z,-1.28
2023-01-31T04:56:08.496Z,-1.38
2023-01-31T04:57:09.017Z,-1.31
2023-01-31T04:58:08.765Z,-1.36
2023-01-31T04:59:08.840Z,-1.39
2023-01-31T05:00:08.629Z,-1.35
2023-01-31T05:01:08.644Z,-1.49
2023-01-31T05:02:08.480Z,-1.59
2023-01-31T05:03:08.463Z,-1.70
2023-01-31T05:04:08.386Z,-1.75
2023-01-31T05:05:08.369Z,-1.96
2023-01-31T05:06:08.358Z,-1.90
2023-01-31T05:07:08.348Z,-2.08
2023-01-31T05:08:08.372Z,-2.03
2023-01-31T05:09:08.422Z,-2.21
2023-01-31T05:10:08.329Z,-2.25
2023-01-31T05:11:08.700Z,-2.37
2023-01-31T05:12:08.297Z,-2.35
2023-01-31T05:13:08.321Z,-2.41
2023-01-31T05:14:08.294Z,-2.55
2023-01-31T05:15:08.276Z,-2.56
2023-01-31T05:16:08.308Z,-2.53
2023-01-31T05:17:08.249Z,-2.51
2023-01-31T05:18:08.284Z,-2.62
2023-01-31T05:19:08.264Z,-2.61
2023-01-31T05:20:08.213Z,-2.86
2023-01-31T05:21:08.248Z,-2.86
2023-01-31T05:22:08.199Z,-2.77
2023-01-31T05:23:08.193Z,-2.74
2023-01-31T05:24:08.205Z,-2.74
2023-01-31T05:25:08.173Z,-2.68
2023-01-31T05:26:08.165Z,-2.64
2023-01-31T05:27:08.155Z,-2.69
2023-01-31T05:28:08.165Z,-2.53
2023-01-31T05:29:08.142Z,-2.40
2023-01-31T05:30:08.112Z,-2.43
2023-01-31T05:31:08.305Z,-2.40
2023-01-31T05:32:08.151Z,-2.51
2023-01-31T05:33:08.096Z,-2.62
2023-01-31T05:34:08.130Z,-2.64
2023-01-31T05:35:08.074Z,-2.76
2023-01-31T05:36:08.051Z,-2.83
2023-01-31T05:37:08.046Z,-2.80
2023-01-31T05:38:08.046Z,-2.84
2023-01-31T05:39:08.033Z,-2.84
2023-01-31T05:40:08.056Z,-2.86
2023-01-31T05:41:08.005Z,-2.83
2023-01-31T05:42:07.993Z,-2.94
2023-01-31T05:43:07.989Z,-2.90
2023-01-31T05:44:07.968Z,-2.97
2023-01-31T05:45:08.056Z,-2.80
2023-01-31T05:46:07.950Z,-2.64
2023-01-31T05:47:07.977Z,-2.65
2023-01-31T05:48:07.935Z,-2.50
2023-01-31T05:49:07.935Z,-2.59
2023-01-31T05:50:07.936Z,-2.56
2023-01-31T05:51:07.919Z,-2.66
2023-01-31T05:52:07.892Z,-2.65
2023-01-31T05:53:07.880Z,-2.68
2023-01-31T05:54:07.888Z,-2.61
2023-01-31T05:55:07.868Z,-2.69
2023-01-31T05:56:07.889Z,-2.71
2023-01-31T05:57:07.858Z,-2.58
2023-01-31T05:58:07.833Z,-2.47
2023-01-31T05:59:07.842Z,-2.44
2023-01-31T06:00:07.841Z,-2.55
2023-01-31T06:01:07.816Z,-2.62
2023-01-31T06:02:07.860Z,-2.62
2023-01-31T06:03:07.844Z,-2.69
2023-01-31T06:04:07.792Z,-2.77
2023-01-31T06:05:07.792Z,-2.68
2023-01-31T06:06:07.767Z,-2.46
2023-01-31T06:07:07.772Z,-2.44
2023-01-31T06:08:07.738Z,-2.10
2023-01-31T06:09:07.766Z,-2.04
2023-01-31T06:10:07.705Z,-2.24
2023-01-31T06:11:07.721Z,-2.32
2023-01-31T06:12:07.693Z,-2.29
2023-01-31T06:13:07.690Z,-2.38
2023-01-31T06:14:07.689Z,-2.19
2023-01-31T06:15:07.679Z,-2.21
2023-01-31T06:16:07.667Z,-2.16
2023-01-31T06:17:07.651Z,-2.22
2023-01-31T06:18:07.620Z,-2.08
2023-01-31T06:19:07.638Z,-1.83
2023-01-31T06:20:07.646Z,-2.00
2023-01-31T06:21:07.618Z,-2.07
2023-01-31T06:22:07.670Z,-2.18
2023-01-31T06:23:07.626Z,-2.22
2023-01-31T06:24:07.601Z,-2.37
2023-01-31T06:25:07.559Z,-2.47
2023-01-31T06:26:07.565Z,-2.58
2023-01-31T06:27:07.549Z,-2.55
2023-01-31T06:28:07.528Z,-2.62
2023-01-31T06:29:07.610Z,-2.65
2023-01-31T06:30:07.523Z,-2.64
2023-01-31T06:31:07.665Z,-2.65
2023-01-31T06:32:07.481Z,-2.71
2023-01-31T06:33:07.479Z,-2.65
2023-01-31T06:34:07.479Z,-2.64
2023-01-31T06:35:07.473Z,-2.62
2023-01-31T06:36:07.447Z,-2.51
2023-01-31T06:37:07.451Z,-2.47
2023-01-31T06:38:07.435Z,-2.53
2023-01-31T06:39:07.492Z,-2.64
2023-01-31T06:40:07.415Z,-2.77
2023-01-31T06:41:07.387Z,-2.79
2023-01-31T06:42:07.385Z,-2.66
2023-01-31T06:43:07.399Z,-2.56
2023-01-31T06:44:07.384Z,-2.41
2023-01-31T06:45:07.364Z,-2.37
2023-01-31T06:46:07.389Z,-2.44
2023-01-31T06:47:07.353Z,-2.22
2023-01-31T06:48:07.371Z,-2.24
2023-01-31T06:49:07.319Z,-2.06
2023-01-31T06:50:07.316Z,-1.89
2023-01-31T06:51:07.311Z,-1.85
2023-01-31T06:52:07.315Z,-1.89
2023-01-31T06:53:07.278Z,-1.89
2023-01-31T06:54:07.311Z,-1.92
2023-01-31T06:55:07.254Z,-2.07
2023-01-31T06:56:07.247Z,-2.19
2023-01-31T06:57:07.247Z,-2.26
2023-01-31T06:58:07.221Z,-2.38
2023-01-31T06:59:07.269Z,-2.35
2023-01-31T07:00:07.218Z,-2.35
2023-01-31T07:01:07.204Z,-2.33
2023-01-31T07:02:07.191Z,-2.44
2023-01-31T07:03:07.179Z,-2.50
2023-01-31T07:04:07.179Z,-2.56
2023-01-31T07:05:07.204Z,-2.65
2023-01-31T07:06:07.149Z,-2.64
2023-01-31T07:07:07.156Z,-2.77
2023-01-31T07:08:07.116Z,-2.65
2023-01-31T07:09:07.126Z,-2.40
2023-01-31T07:10:07.134Z,-1.90
2023-01-31T07:11:07.123Z,-1.51
2023-01-31T07:12:07.087Z,-1.49
2023-01-31T07:13:07.071Z,-1.56
2023-01-31T07:14:07.080Z,-1.50
2023-01-31T07:15:07.049Z,-1.49
2023-01-31T07:16:07.267Z,-1.65
2023-01-31T07:17:07.027Z,-1.82
2023-01-31T07:18:07.021Z,-1.90
2023-01-31T07:19:07.074Z,-1.96
2023-01-31T07:20:07.000Z,-2.08
2023-01-31T07:21:06.988Z,-2.25
2023-01-31T07:22:06.982Z,-2.25
2023-01-31T07:23:07.061Z,-2.28
2023-01-31T07:24:06.971Z,-2.38
2023-01-31T07:25:06.962Z,-2.33
2023-01-31T07:26:06.982Z,-2.41
2023-01-31T07:27:06.970Z,-2.43
2023-01-31T07:28:06.932Z,-2.47
2023-01-31T07:29:06.925Z,-2.41
2023-01-31T07:30:06.906Z,-2.35
2023-01-31T07:31:06.876Z,-2.06
2023-01-31T07:32:06.883Z,-1.77
2023-01-31T07:33:06.904Z,-1.53
2023-01-31T07:34:06.878Z,-1.46
2023-01-31T07:35:06.855Z,-1.33
2023-01-31T07:36:06.867Z,-1.25
2023-01-31T07:37:06.834Z,-1.23
2023-01-31T07:38:06.809Z,-1.20
2023-01-31T07:39:06.826Z,-1.17
2023-01-31T07:40:06.817Z,-1.18
2023-01-31T07:41:06.778Z,-1.15
2023-01-31T07:42:06.793Z,-1.07
2023-01-31T07:43:06.906Z,-1.05
2023-01-31T07:44:06.764Z,-0.90
2023-01-31T07:45:21.935Z,-0.71
2023-01-31T07:46:07.821Z,-0.58
2023-01-31T07:47:06.713Z,-0.39
2023-01-31T07:48:06.712Z,0.12
2023-01-31T07:49:06.705Z,0.37
2023-01-31T07:50:06.725Z,0.81
2023-01-31T07:51:06.707Z,1.13
2023-01-31T07:52:08.508Z,1.20
2023-01-31T07:53:06.663Z,1.31
2023-01-31T07:54:06.642Z,1.42
2023-01-31T07:55:06.658Z,1.70
2023-01-31T07:56:06.634Z,1.93
2023-01-31T07:57:06.613Z,1.89
2023-01-31T07:58:06.620Z,2.01
2023-01-31T07:59:06.649Z,2.11
2023-01-31T08:00:06.580Z,2.14
2023-01-31T08:01:06.604Z,2.33
2023-01-31T08:02:06.569Z,2.83
2023-01-31T08:03:06.551Z,2.92
2023-01-31T08:04:20.134Z,3.07
2023-01-31T08:05:07.552Z,3.41
2023-01-31T08:06:06.556Z,3.46
2023-01-31T08:07:06.575Z,2.94
2023-01-31T08:08:06.617Z,2.74
2023-01-31T08:09:06.490Z,3.04
2023-01-31T08:10:06.489Z,3.42
2023-01-31T08:11:06.538Z,3.95
2023-01-31T08:12:06.471Z,4.13
2023-01-31T08:13:06.454Z,4.46
2023-01-31T08:14:06.487Z,4.72
2023-01-31T08:15:06.443Z,4.53
2023-01-31T08:16:06.417Z,4.49
2023-01-31T08:17:06.456Z,4.65
2023-01-31T08:18:06.763Z,4.94
2023-01-31T08:19:06.393Z,5.20
2023-01-31T08:20:06.376Z,5.51
2023-01-31T08:21:06.362Z,5.83
2023-01-31T08:22:06.350Z,5.81
2023-01-31T08:23:06.339Z,5.85
2023-01-31T08:24:06.343Z,5.66
2023-01-31T08:25:06.333Z,5.30
2023-01-31T08:26:06.317Z,5.32
2023-01-31T08:27:06.352Z,5.40
2023-01-31T08:28:06.295Z,5.74
2023-01-31T08:29:06.292Z,5.95
2023-01-31T08:30:06.287Z,5.85
2023-01-31T08:31:09.308Z,6.16
2023-01-31T08:32:06.267Z,6.21
2023-01-31T08:33:06.276Z,5.98
2023-01-31T08:34:06.236Z,5.95
2023-01-31T08:35:06.215Z,5.83
2023-01-31T08:36:06.209Z,5.90
2023-01-31T08:37:06.267Z,5.77
2023-01-31T08:38:15.997Z,5.80
2023-01-31T08:39:07.263Z,5.65
2023-01-31T08:40:06.166Z,5.52
2023-01-31T08:41:06.151Z,5.52
2023-01-31T08:42:06.151Z,5.47
2023-01-31T08:43:06.143Z,5.56
2023-01-31T08:44:06.170Z,5.75
2023-01-31T08:45:06.117Z,5.69
2023-01-31T08:46:06.113Z,5.60
2023-01-31T08:47:06.089Z,5.75
2023-01-31T08:48:06.076Z,5.69
2023-01-31T08:49:06.115Z,5.69
2023-01-31T08:50:15.898Z,5.58
2023-01-31T08:51:07.045Z,5.52
2023-01-31T08:52:06.030Z,4.97
2023-01-31T08:53:06.021Z,4.29
2023-01-31T08:54:06.031Z,3.98
2023-01-31T08:55:06.001Z,3.95
2023-01-31T08:56:07.785Z,3.93
2023-01-31T08:57:06.018Z,3.75
2023-01-31T08:58:05.977Z,3.77
2023-01-31T08:59:06.030Z,3.52
2023-01-31T09:00:05.952Z,3.25
2023-01-31T09:01:05.985Z,3.26
2023-01-31T09:02:05.970Z,3.28
2023-01-31T09:03:06.002Z,3.20
2023-01-31T09:04:05.924Z,3.39
2023-01-31T09:05:05.895Z,3.52
2023-01-31T09:06:05.909Z,3.93
2023-01-31T09:07:05.872Z,4.11
2023-01-31T09:08:05.864Z,3.98
2023-01-31T09:09:05.866Z,3.84
2023-01-31T09:10:05.841Z,4.20
2023-01-31T09:11:05.831Z,4.20
2023-01-31T09:12:05.821Z,4.34
2023-01-31T09:13:05.814Z,4.46
2023-01-31T09:14:05.823Z,4.69
2023-01-31T09:15:05.793Z,4.99
2023-01-31T09:16:05.779Z,5.58
2023-01-31T09:17:05.782Z,6.17
2023-01-31T09:18:05.796Z,6.63
2023-01-31T09:19:05.785Z,6.78
2023-01-31T09:20:05.735Z,6.79
2023-01-31T09:21:05.738Z,6.53
2023-01-31T09:22:05.721Z,6.54
2023-01-31T09:23:05.702Z,6.36
2023-01-31T09:24:05.713Z,6.13
2023-01-31T09:25:05.693Z,6.39
2023-01-31T09:26:05.669Z,6.75
2023-01-31T09:27:05.660Z,6.65
2023-01-31T09:28:05.665Z,7.15
2023-01-31T09:29:05.656Z,7.62
2023-01-31T09:30:05.624Z,7.81
2023-01-31T09:31:05.742Z,7.76
2023-01-31T09:32:05.612Z,7.37
2023-01-31T09:33:05.595Z,7.79
2023-01-31T09:34:05.921Z,7.99
2023-01-31T09:35:05.572Z,8.20
2023-01-31T09:36:05.581Z,8.10
2023-01-31T09:37:05.551Z,7.92
2023-01-31T09:38:05.538Z,7.95
2023-01-31T09:39:05.584Z,8.25
2023-01-31T09:40:05.522Z,8.10
2023-01-31T09:41:05.514Z,8.13
2023-01-31T09:42:06.357Z,8.00
2023-01-31T09:43:05.491Z,8.03
2023-01-31T09:44:05.496Z,8.28
2023-01-31T09:45:05.468Z,8.45
2023-01-31T09:46:05.480Z,8.28
2023-01-31T09:47:05.607Z,8.00
2023-01-31T09:48:05.439Z,8.06
2023-01-31T09:49:05.423Z,8.22
2023-01-31T09:50:05.435Z,8.32
2023-01-31T09:51:05.398Z,8.21
2023-01-31T09:52:05.407Z,8.37
2023-01-31T09:53:05.390Z,8.58
2023-01-31T09:54:05.369Z,8.60
2023-01-31T09:55:05.356Z,8.98
2023-01-31T09:56:05.347Z,9.13
2023-01-31T09:57:05.355Z,9.10
2023-01-31T09:58:05.325Z,9.52
2023-01-31T09:59:05.337Z,9.42
2023-01-31T10:00:05.302Z,9.06
2023-01-31T10:01:05.378Z,8.68
2023-01-31T10:02:05.291Z,8.68
2023-01-31T10:03:05.272Z,9.37
2023-01-31T10:04:05.327Z,9.92
2023-01-31T10:05:05.250Z,10.29
2023-01-31T10:06:05.292Z,9.99
2023-01-31T10:07:05.239Z,9.19
2023-01-31T10:08:05.219Z,8.31
2023-01-31T10:09:05.227Z,7.84
2023-01-31T10:10:05.205Z,7.57
2023-01-31T10:11:05.183Z,8.24
2023-01-31T10:12:05.216Z,7.84
2023-01-31T10:13:05.183Z,7.63
2023-01-31T10:14:05.185Z,7.71
2023-01-31T10:15:05.140Z,7.99
2023-01-31T10:16:05.131Z,7.74
2023-01-31T10:17:05.307Z,7.41
2023-01-31T10:18:05.135Z,7.54
2023-01-31T10:19:05.150Z,7.48
2023-01-31T10:20:05.089Z,7.62
2023-01-31T10:21:05.393Z,7.81
2023-01-31T10:22:05.086Z,8.03
2023-01-31T10:23:05.104Z,8.12
2023-01-31T10:24:05.063Z,8.13
2023-01-31T10:25:05.077Z,8.02
2023-01-31T10:26:05.024Z,8.02
2023-01-31T10:27:05.010Z,7.92
2023-01-31T10:28:05.005Z,7.79
2023-01-31T10:29:05.012Z,7.58
2023-01-31T10:30:04.979Z,7.44
2023-01-31T10:31:05.026Z,7.29
2023-01-31T10:32:05.069Z,7.27
2023-01-31T10:33:04.945Z,7.23
2023-01-31T10:34:04.971Z,6.99
2023-01-31T10:35:04.923Z,6.83
2023-01-31T10:36:04.915Z,6.78
2023-01-31T10:37:04.907Z,6.65
2023-01-31T10:38:04.920Z,6.60
2023-01-31T10:39:04.911Z,6.55
2023-01-31T10:40:04.875Z,6.68
2023-01-31T10:41:04.867Z,6.60
2023-01-31T10:42:04.854Z,6.48
2023-01-31T10:43:04.846Z,6.48
2023-01-31T10:44:04.844Z,6.60
2023-01-31T10:45:04.813Z,6.68
2023-01-31T10:46:04.850Z,6.79
2023-01-31T10:47:04.795Z,6.57
2023-01-31T10:48:04.785Z,6.65
2023-01-31T10:49:04.834Z,6.61
2023-01-31T10:50:04.766Z,6.75
2023-01-31T10:51:04.751Z,6.78
2023-01-31T10:52:04.764Z,6.94
2023-01-31T10:53:04.731Z,6.93
2023-01-31T10:54:04.788Z,6.96
2023-01-31T10:55:04.740Z,6.90
2023-01-31T10:56:04.701Z,6.97
2023-01-31T10:57:04.686Z,7.15
2023-01-31T10:58:06.206Z,7.12
2023-01-31T10:59:04.669Z,7.08
2023-01-31T11:00:04.656Z,7.12
2023-01-31T11:01:04.719Z,7.69
2023-01-31T11:02:04.678Z,8.50
2023-01-31T11:03:05.096Z,9.08
2023-01-31T11:04:04.621Z,9.49
2023-01-31T11:05:04.598Z,9.01
2023-01-31T11:06:04.592Z,9.19
2023-01-31T11:07:04.617Z,9.22
2023-01-31T11:08:04.569Z,9.48
2023-01-31T11:09:04.582Z,9.65
2023-01-31T11:10:04.601Z,9.41
2023-01-31T11:11:04.576Z,9.22
2023-01-31T11:12:04.527Z,9.24
2023-01-31T11:13:04.674Z,9.56
2023-01-31T11:14:04.526Z,9.60
2023-01-31T11:15:04.504Z,9.19
2023-01-31T11:16:04.522Z,9.32
2023-01-31T11:17:04.469Z,9.78
2023-01-31T11:18:04.469Z,9.86
2023-01-31T11:19:04.519Z,9.80
2023-01-31T11:20:04.439Z,9.98
2023-01-31T11:21:04.437Z,9.89
2023-01-31T11:22:04.436Z,9.53
2023-01-31T11:23:04.416Z,9.59
2023-01-31T11:24:05.058Z,9.88
2023-01-31T11:25:04.385Z,9.96
2023-01-31T11:26:04.392Z,10.09
2023-01-31T11:27:04.370Z,10.18
2023-01-31T11:28:04.361Z,10.20
2023-01-31T11:29:04.354Z,10.04
2023-01-31T11:30:04.352Z,9.92
2023-01-31T11:31:04.326Z,9.71
2023-01-31T11:32:04.391Z,9.35
2023-01-31T11:33:04.306Z,9.52
2023-01-31T11:34:04.319Z,9.78
2023-01-31T11:35:04.292Z,9.83
2023-01-31T11:36:04.290Z,9.70
2023-01-31T11:37:04.259Z,9.62
2023-01-31T11:38:04.249Z,9.52
2023-01-31T11:39:04.263Z,9.30
2023-01-31T11:40:04.250Z,9.38
2023-01-31T11:41:04.242Z,9.24
2023-01-31T11:42:04.230Z,9.04
2023-01-31T11:43:04.198Z,9.13
2023-01-31T11:44:04.317Z,9.16
2023-01-31T11:45:04.184Z,9.10
2023-01-31T11:46:04.253Z,9.19
2023-01-31T11:47:04.156Z,9.15
2023-01-31T11:48:04.192Z,8.97
2023-01-31T11:49:04.131Z,8.67
2023-01-31T11:50:04.137Z,8.60
2023-01-31T11:51:04.121Z,8.39
2023-01-31T11:52:04.125Z,8.49
2023-01-31T11:53:04.087Z,8.61
2023-01-31T11:54:04.099Z,8.83
2023-01-31T11:55:04.095Z,9.00
2023-01-31T11:56:04.067Z,8.96
2023-01-31T11:57:04.043Z,8.76
2023-01-31T11:58:04.060Z,8.65
2023-01-31T11:59:04.027Z,8.68
2023-01-31T12:00:04.037Z,8.60
2023-01-31T12:01:04.032Z,8.40
2023-01-31T12:02:04.032Z,8.54
2023-01-31T12:03:05.630Z,8.58
2023-01-31T12:04:04.538Z,8.60
2023-01-31T12:05:03.960Z,8.49
2023-01-31T12:06:03.960Z,8.76
2023-01-31T12:07:03.970Z,8.73
2023-01-31T12:08:03.926Z,8.76
2023-01-31T12:09:03.921Z,8.75
2023-01-31T12:10:03.919Z,8.65
2023-01-31T12:11:03.890Z,8.65
2023-01-31T12:12:05.903Z,8.37
2023-01-31T12:13:17.873Z,8.32
2023-01-31T12:14:04.876Z,8.21
2023-01-31T12:15:03.880Z,8.22
2023-01-31T12:16:04.399Z,8.00
2023-01-31T12:17:03.925Z,8.00
2023-01-31T12:18:03.815Z,8.09
2023-01-31T12:19:03.805Z,8.27
2023-01-31T12:20:14.243Z,8.29
2023-01-31T12:21:04.785Z,8.36
2023-01-31T12:22:03.777Z,8.29
2023-01-31T12:23:03.766Z,7.88
2023-01-31T12:24:03.754Z,7.95
2023-01-31T12:25:03.774Z,7.81
2023-01-31T12:26:03.733Z,7.67
2023-01-31T12:27:03.753Z,7.57
2023-01-31T12:28:03.880Z,7.54
2023-01-31T12:29:03.695Z,7.54
2023-01-31T12:30:03.751Z,7.39
2023-01-31T12:31:03.839Z,7.34
2023-01-31T12:32:03.680Z,7.26
2023-01-31T12:33:03.703Z,7.27
2023-01-31T12:34:03.671Z,7.48
2023-01-31T12:35:07.581Z,7.48
2023-01-31T12:36:04.679Z,7.45
2023-01-31T12:37:03.608Z,7.48
2023-01-31T12:38:03.619Z,7.54
2023-01-31T12:39:03.589Z,7.63
2023-01-31T12:40:11.874Z,7.66
2023-01-31T12:41:04.645Z,7.51
2023-01-31T12:42:03.562Z,7.34
2023-01-31T12:43:03.566Z,7.51
2023-01-31T12:44:03.537Z,7.54
2023-01-31T12:45:03.534Z,7.50
2023-01-31T12:46:04.665Z,7.52
2023-01-31T12:47:11.812Z,7.47
2023-01-31T12:48:04.493Z,7.45
2023-01-31T12:49:03.543Z,7.47
2023-01-31T12:50:03.495Z,7.48
2023-01-31T12:51:03.461Z,7.50
2023-01-31T12:52:03.473Z,7.58
2023-01-31T12:53:03.453Z,7.48
2023-01-31T12:54:03.435Z,7.48
2023-01-31T12:55:03.445Z,7.48
2023-01-31T12:56:03.404Z,7.54
2023-01-31T12:57:03.394Z,7.44
2023-01-31T12:58:04.785Z,7.42
2023-01-31T12:59:15.498Z,7.39
2023-01-31T13:00:04.411Z,7.45
2023-01-31T13:01:03.470Z,7.26
2023-01-31T13:02:03.385Z,7.24
2023-01-31T13:03:03.412Z,7.29
2023-01-31T13:04:03.317Z,7.30
2023-01-31T13:05:04.233Z,7.21
2023-01-31T13:06:03.451Z,7.12